createdAt,value
2023-05-21T00:02:19.861Z,21.99
2023-05-21T00:04:46.522Z,21.61
2023-05-21T00:07:13.401Z,21.93
2023-05-21T00:09:39.904Z,21.52
2023-05-21T00:12:09.721Z,21.09
2023-05-21T00:14:36.542Z,21.47
2023-05-21T00:17:03.000Z,21.82
2023-05-21T00:19:29.634Z,21.03
2023-05-21T00:21:57.581Z,20.41
2023-05-21T00:24:24.027Z,21.44
2023-05-21T00:26:50.495Z,22.03
2023-05-21T00:29:16.976Z,21.09
2023-05-21T00:31:43.443Z,21.32
2023-05-21T00:34:09.889Z,21.13
2023-05-21T00:36:36.316Z,20.59
2023-05-21T00:39:04.265Z,20.73
2023-05-21T00:41:30.694Z,21.25
2023-05-21T00:43:57.230Z,21.01
2023-05-21T00:46:24.013Z,21.20
2023-05-21T00:48:50.970Z,21.06
2023-05-21T00:51:18.471Z,20.62
2023-05-21T00:53:46.631Z,20.76
2023-05-21T00:56:13.286Z,21.18
2023-05-21T00:58:40.607Z,20.62
2023-05-21T01:01:07.254Z,20.51
2023-05-21T01:03:38.524Z,21.14
2023-05-21T01:06:06.106Z,20.29
2023-05-21T01:08:34.519Z,20.48
2023-05-21T01:11:02.584Z,20.83
2023-05-21T01:13:29.593Z,20.72
2023-05-21T01:15:58.032Z,20.57
2023-05-21T01:18:24.544Z,20.83
2023-05-21T01:20:52.397Z,20.94
2023-05-21T01:23:19.845Z,21.29
2023-05-21T01:25:47.069Z,20.54
2023-05-21T01:28:13.933Z,21.13
2023-05-21T01:30:41.367Z,21.34
2023-05-21T01:33:15.597Z,20.97
2023-05-21T01:36:10.154Z,20.74
2023-05-21T01:38:43.081Z,20.28
2023-05-21T01:41:13.792Z,20.38
2023-05-21T01:43:42.535Z,20.44
2023-05-21T01:46:10.816Z,21.16
2023-05-21T01:48:37.977Z,20.88
2023-05-21T01:51:06.071Z,20.76
2023-05-21T01:53:32.552Z,21.10
2023-05-21T01:55:59.343Z,20.59
2023-05-21T01:58:26.021Z,20.49
2023-05-21T02:00:52.445Z,20.37
2023-05-21T02:03:20.123Z,20.30
2023-05-21T02:05:47.213Z,20.81
2023-05-21T02:08:15.029Z,20.02
2023-05-21T02:10:41.471Z,20.59
2023-05-21T02:13:08.019Z,20.55
2023-05-21T02:15:34.798Z,20.72
2023-05-21T02:18:01.669Z,20.71
2023-05-21T02:20:28.156Z,20.49
2023-05-21T02:22:54.598Z,20.69
2023-05-21T02:25:21.051Z,20.79
2023-05-21T02:27:47.615Z,20.69
2023-05-21T02:30:15.531Z,20.09
2023-05-21T02:32:43.164Z,20.74
2023-05-21T02:35:13.152Z,20.46
2023-05-21T02:37:40.492Z,20.65
2023-05-21T02:40:08.012Z,20.87
2023-05-21T02:42:36.496Z,20.59
2023-05-21T02:45:02.985Z,20.46
2023-05-21T02:47:29.411Z,20.30
2023-05-21T02:50:01.480Z,20.10
2023-05-21T02:52:28.090Z,20.44
2023-05-21T02:54:54.561Z,20.65
2023-05-21T02:57:21.009Z,20.60
2023-05-21T02:59:47.441Z,21.11
2023-05-21T03:02:13.937Z,21.19
2023-05-21T03:04:46.337Z,21.08
2023-05-21T03:07:14.325Z,20.64
2023-05-21T03:09:44.349Z,20.16
2023-05-21T03:12:11.113Z,20.40
2023-05-21T03:14:37.776Z,20.33
2023-05-21T03:17:07.197Z,20.45
2023-05-21T03:19:37.301Z,20.16
2023-05-21T03:22:04.150Z,19.83
2023-05-21T03:24:30.806Z,20.81
2023-05-21T03:26:57.551Z,20.78
2023-05-21T03:29:23.992Z,20.42
2023-05-21T03:31:52.560Z,20.58
2023-05-21T03:34:20.060Z,20.55
2023-05-21T03:36:47.253Z,20.76
2023-05-21T03:39:13.826Z,20.43
2023-05-21T03:41:40.677Z,20.20
2023-05-21T03:44:07.134Z,19.98
2023-05-21T03:46:33.803Z,20.37
2023-05-21T03:49:00.582Z,20.63
2023-05-21T03:51:27.525Z,20.67
2023-05-21T03:53:53.995Z,20.69
2023-05-21T03:56:21.545Z,20.57
2023-05-21T03:58:48.085Z,20.23
2023-05-21T04:01:14.606Z,20.66
2023-05-21T04:03:41.305Z,20.42
2023-05-21T04:06:10.042Z,20.09
2023-05-21T04:08:37.980Z,20.80
2023-05-21T04:11:04.472Z,20.20
2023-05-21T04:13:30.900Z,20.21
2023-05-21T04:15:57.366Z,20.70
2023-05-21T04:18:25.922Z,20.62
2023-05-21T04:20:52.869Z,20.93
2023-05-21T04:23:19.367Z,20.73
2023-05-21T04:25:50.511Z,20.28
2023-05-21T04:28:20.091Z,20.14
2023-05-21T04:30:47.325Z,19.70
2023-05-21T04:33:17.944Z,19.84
2023-05-21T04:35:47.217Z,20.00
2023-05-21T04:38:14.165Z,20.51
2023-05-21T04:40:40.704Z,20.23
2023-05-21T04:43:08.062Z,20.18
2023-05-21T04:45:34.590Z,20.84
2023-05-21T04:48:01.207Z,21.10
2023-05-21T04:50:30.845Z,20.70
2023-05-21T04:52:58.686Z,20.90
2023-05-21T04:55:25.846Z,20.55
2023-05-21T04:57:52.770Z,20.81
2023-05-21T05:00:19.929Z,20.68
2023-05-21T05:02:46.729Z,20.28
2023-05-21T05:05:13.228Z,19.92
2023-05-21T05:07:39.636Z,20.42
2023-05-21T05:10:06.548Z,20.68
2023-05-21T05:12:32.962Z,20.66
2023-05-21T05:14:59.410Z,20.98
2023-05-21T05:17:26.035Z,21.06
2023-05-21T05:19:53.154Z,20.50
2023-05-21T05:22:19.611Z,20.70
2023-05-21T05:24:46.094Z,21.90
2023-05-21T05:27:12.547Z,22.52
2023-05-21T05:29:38.970Z,21.96
2023-05-21T05:32:05.812Z,21.54
2023-05-21T05:34:32.377Z,21.67
2023-05-21T05:36:58.867Z,20.87
2023-05-21T05:39:25.540Z,21.43
2023-05-21T05:41:52.001Z,21.60
2023-05-21T05:44:18.519Z,21.41
2023-05-21T05:46:45.145Z,21.13
2023-05-21T05:49:11.691Z,20.62
2023-05-21T05:51:38.123Z,21.08
2023-05-21T05:54:04.646Z,20.88
2023-05-21T05:56:31.073Z,21.63
2023-05-21T05:58:59.176Z,21.51
2023-05-21T06:01:26.216Z,22.04
2023-05-21T06:03:53.324Z,21.48
2023-05-21T06:06:19.945Z,21.05
2023-05-21T06:08:46.512Z,21.86
2023-05-21T06:11:13.073Z,22.31
2023-05-21T06:13:39.634Z,22.34
2023-05-21T06:16:06.408Z,22.52
2023-05-21T06:18:32.884Z,22.51
2023-05-21T06:20:59.295Z,22.22
2023-05-21T06:23:25.762Z,21.41
2023-05-21T06:25:52.193Z,21.56
2023-05-21T06:28:18.676Z,22.21
2023-05-21T06:30:45.210Z,22.67
2023-05-21T06:33:12.789Z,23.44
2023-05-21T06:35:40.190Z,22.83
2023-05-21T06:38:06.625Z,23.07
2023-05-21T06:40:34.158Z,23.71
2023-05-21T06:43:01.124Z,23.88
2023-05-21T06:45:27.540Z,24.47
2023-05-21T06:47:53.976Z,24.41
2023-05-21T06:50:20.506Z,24.00
2023-05-21T06:52:46.949Z,24.62
2023-05-21T06:55:13.378Z,24.97
2023-05-21T06:57:39.817Z,23.44
2023-05-21T07:00:08.398Z,23.60
2023-05-21T07:02:34.978Z,23.69
2023-05-21T07:05:01.493Z,24.05
2023-05-21T07:07:28.152Z,24.20
2023-05-21T07:09:54.625Z,23.28
2023-05-21T07:12:21.019Z,24.60
2023-05-21T07:14:47.527Z,25.37
2023-05-21T07:17:13.999Z,24.96
2023-05-21T07:19:40.500Z,24.24
2023-05-21T07:22:07.243Z,24.05
2023-05-21T07:24:33.697Z,23.75
2023-05-21T07:27:00.289Z,24.88
2023-05-21T07:29:27.329Z,24.63
2023-05-21T07:31:53.724Z,23.49
2023-05-21T07:34:20.262Z,24.03
2023-05-21T07:36:46.714Z,24.26
2023-05-21T07:39:13.188Z,24.55
2023-05-21T07:41:39.664Z,24.18
2023-05-21T07:44:06.198Z,24.95
2023-05-21T07:46:32.651Z,24.71
2023-05-21T07:48:59.128Z,24.36
2023-05-21T07:51:26.260Z,25.33
2023-05-21T07:53:55.010Z,25.15
2023-05-21T07:56:21.732Z,24.50
2023-05-21T07:58:48.409Z,25.11
2023-05-21T08:01:14.889Z,25.14
2023-05-21T08:03:41.515Z,24.25
2023-05-21T08:06:08.065Z,24.28
2023-05-21T08:08:34.507Z,24.24
2023-05-21T08:11:01.840Z,24.61
2023-05-21T08:13:28.297Z,24.76
2023-05-21T08:15:54.909Z,24.15
2023-05-21T08:18:23.719Z,25.13
2023-05-21T08:20:50.469Z,25.79
2023-05-21T08:23:16.933Z,24.97
2023-05-21T08:25:43.364Z,24.50
2023-05-21T08:28:09.773Z,24.96
2023-05-21T08:30:36.202Z,25.07
2023-05-21T08:33:02.717Z,24.92
2023-05-21T08:35:29.236Z,25.36
2023-05-21T08:37:55.649Z,25.72
2023-05-21T08:40:22.171Z,25.11
2023-05-21T08:42:49.718Z,25.23
2023-05-21T08:45:23.633Z,24.43
2023-05-21T08:47:57.418Z,25.19
2023-05-21T08:50:26.817Z,25.29
2023-05-21T08:52:55.217Z,24.77
2023-05-21T08:55:23.437Z,25.90
2023-05-21T08:57:50.606Z,25.92
2023-05-21T09:00:17.303Z,26.26
2023-05-21T09:02:44.611Z,27.66
2023-05-21T09:05:12.220Z,27.54
2023-05-21T09:07:44.568Z,27.28
2023-05-21T09:10:13.115Z,26.91
2023-05-21T09:12:40.106Z,27.84
2023-05-21T09:15:07.519Z,27.55
2023-05-21T09:17:34.022Z,27.68
2023-05-21T09:20:14.556Z,28.42
2023-05-21T09:22:42.873Z,28.29
2023-05-21T09:25:11.226Z,28.06
2023-05-21T09:27:38.570Z,26.62
2023-05-21T09:30:09.607Z,27.44
2023-05-21T09:32:36.142Z,26.67
2023-05-21T09:35:13.341Z,26.76
2023-05-21T09:37:47.831Z,27.96
2023-05-21T09:40:15.184Z,28.87
2023-05-21T09:42:54.655Z,27.57
2023-05-21T09:45:22.347Z,28.30
2023-05-21T09:47:49.876Z,28.91
2023-05-21T09:50:22.985Z,27.16
2023-05-21T09:52:52.700Z,27.26
2023-05-21T09:55:22.959Z,27.51
2023-05-21T09:57:50.700Z,27.96
2023-05-21T10:00:24.600Z,27.75
2023-05-21T10:02:55.823Z,28.07
2023-05-21T10:05:26.361Z,27.97
2023-05-21T10:07:54.377Z,27.67
2023-05-21T10:10:22.615Z,29.47
2023-05-21T10:12:55.308Z,28.56
2023-05-21T10:15:24.173Z,28.29
2023-05-21T10:17:52.277Z,28.78
2023-05-21T10:20:18.916Z,29.16
2023-05-21T10:22:45.669Z,28.68
2023-05-21T10:25:13.171Z,27.94
2023-05-21T10:27:39.968Z,28.51
2023-05-21T10:30:06.890Z,28.95
2023-05-21T10:32:33.977Z,29.30
2023-05-21T10:35:02.258Z,28.93
2023-05-21T10:37:29.133Z,28.57
2023-05-21T10:39:56.516Z,28.87
2023-05-21T10:43:00.360Z,29.33
2023-05-21T10:45:54.095Z,28.90
2023-05-21T10:48:44.760Z,29.80
2023-05-21T10:51:24.247Z,29.56
2023-05-21T10:54:28.539Z,30.00
2023-05-21T10:57:13.438Z,30.16
2023-05-21T10:59:39.800Z,30.03
2023-05-21T11:02:07.029Z,30.27
2023-05-21T11:04:34.964Z,30.48
2023-05-21T11:07:02.044Z,31.47
2023-05-21T11:09:28.509Z,32.19
2023-05-21T11:11:59.030Z,32.41
2023-05-21T11:14:26.734Z,31.71
2023-05-21T11:16:53.243Z,31.65
2023-05-21T11:19:19.754Z,32.45
2023-05-21T11:21:54.011Z,32.03
2023-05-21T11:24:20.568Z,31.74
2023-05-21T11:27:01.536Z,32.23
2023-05-21T11:29:40.251Z,31.49
2023-05-21T11:32:10.999Z,31.90
2023-05-21T11:34:46.019Z,30.57
2023-05-21T11:37:18.772Z,31.16
2023-05-21T11:39:45.580Z,31.43
2023-05-21T11:42:12.196Z,31.56
2023-05-21T11:44:42.705Z,31.01
2023-05-21T11:47:10.752Z,30.83
2023-05-21T11:49:37.916Z,31.45
2023-05-21T11:52:08.651Z,30.75
2023-05-21T11:54:44.048Z,31.39
2023-05-21T11:57:10.552Z,30.88
2023-05-21T11:59:37.072Z,31.55
2023-05-21T12:02:04.001Z,31.06
2023-05-21T12:04:31.356Z,30.97
2023-05-21T12:06:58.548Z,31.46
2023-05-21T12:09:25.102Z,31.93
2023-05-21T12:11:51.741Z,32.13
2023-05-21T12:14:18.240Z,31.31
2023-05-21T12:16:44.850Z,31.25
2023-05-21T12:19:11.440Z,30.56
2023-05-21T12:21:38.049Z,31.38
2023-05-21T12:24:04.715Z,31.12
2023-05-21T12:26:33.173Z,32.22
2023-05-21T12:28:59.751Z,32.63
2023-05-21T12:31:27.566Z,32.51
2023-05-21T12:33:54.161Z,33.13
2023-05-21T12:36:29.292Z,33.42
2023-05-21T12:38:56.384Z,33.10
2023-05-21T12:41:23.102Z,33.33
2023-05-21T12:43:50.812Z,32.27
2023-05-21T12:46:18.825Z,31.43
2023-05-21T12:48:57.392Z,31.46
2023-05-21T12:51:23.824Z,31.52
2023-05-21T12:53:50.248Z,32.00
2023-05-21T12:56:16.666Z,32.20
2023-05-21T12:58:43.496Z,32.02
2023-05-21T13:01:11.158Z,31.52
2023-05-21T13:03:38.445Z,31.33
2023-05-21T13:06:08.946Z,31.85
2023-05-21T13:08:35.467Z,31.55
2023-05-21T13:11:05.388Z,31.61
2023-05-21T13:13:31.969Z,31.40
2023-05-21T13:16:00.575Z,32.49
2023-05-21T13:18:27.249Z,32.18
2023-05-21T13:20:53.794Z,32.25
2023-05-21T13:23:20.487Z,32.60
2023-05-21T13:25:46.906Z,32.64
2023-05-21T13:28:15.305Z,32.80
2023-05-21T13:30:41.801Z,32.60
2023-05-21T13:33:08.387Z,33.26
2023-05-21T13:35:35.269Z,33.03
2023-05-21T13:38:02.059Z,33.80
2023-05-21T13:40:28.781Z,33.73
2023-05-21T13:42:55.251Z,33.84
2023-05-21T13:45:21.718Z,33.88
2023-05-21T13:47:48.736Z,33.36
2023-05-21T13:50:15.531Z,33.19
2023-05-21T13:52:42.174Z,34.39
2023-05-21T13:55:09.412Z,33.28
2023-05-21T13:57:36.006Z,32.80
2023-05-21T14:00:03.595Z,32.95
2023-05-21T14:02:30.252Z,34.03
2023-05-21T14:04:57.278Z,34.51
2023-05-21T14:07:23.707Z,34.00
2023-05-21T14:09:50.403Z,35.35
2023-05-21T14:12:17.099Z,36.11
2023-05-21T14:14:43.674Z,36.23
2023-05-21T14:17:10.283Z,34.19
2023-05-21T14:19:36.741Z,34.62
2023-05-21T14:22:03.120Z,34.93
2023-05-21T14:24:29.566Z,33.43
2023-05-21T14:26:55.989Z,34.85
2023-05-21T14:29:22.457Z,34.96
2023-05-21T14:31:49.015Z,35.84
2023-05-21T14:34:15.544Z,33.98
2023-05-21T14:36:42.021Z,34.91
2023-05-21T14:39:08.502Z,35.56
2023-05-21T14:41:38.692Z,35.00
2023-05-21T14:44:05.557Z,35.31
2023-05-21T14:46:32.543Z,34.66
2023-05-21T14:49:00.156Z,35.27
2023-05-21T14:51:26.641Z,36.03
2023-05-21T14:53:53.157Z,36.44
2023-05-21T14:56:22.226Z,36.75
2023-05-21T14:58:48.605Z,36.86
2023-05-21T15:01:15.028Z,36.25
2023-05-21T15:03:41.630Z,36.34
2023-05-21T15:06:08.176Z,36.01
2023-05-21T15:08:34.528Z,36.64
2023-05-21T15:11:00.894Z,35.80
2023-05-21T15:13:27.235Z,36.25
2023-05-21T15:15:53.670Z,36.47
2023-05-21T15:18:20.045Z,36.28
2023-05-21T15:20:46.438Z,36.87
2023-05-21T15:23:17.272Z,37.78
2023-05-21T15:25:44.645Z,37.79
2023-05-21T15:28:12.233Z,37.01
2023-05-21T15:30:38.967Z,37.37
2023-05-21T15:33:05.442Z,37.61
2023-05-21T15:35:32.050Z,37.59
2023-05-21T15:37:58.603Z,36.77
2023-05-21T15:40:26.863Z,36.41
2023-05-21T15:42:53.946Z,35.66
2023-05-21T15:45:20.641Z,35.56
2023-05-21T15:47:47.252Z,36.06
2023-05-21T15:50:13.845Z,35.79
2023-05-21T15:52:41.845Z,36.14
2023-05-21T15:55:08.782Z,36.01
2023-05-21T15:57:35.327Z,35.79
2023-05-21T16:00:01.926Z,36.24
2023-05-21T16:02:31.334Z,35.85
2023-05-21T16:04:57.862Z,35.73
2023-05-21T16:07:47.697Z,35.77
2023-05-21T16:10:19.831Z,35.30
2023-05-21T16:12:50.323Z,35.17
2023-05-21T16:15:16.877Z,35.28
2023-05-21T16:17:43.417Z,35.77
2023-05-21T16:20:10.409Z,35.53
2023-05-21T16:22:36.937Z,34.99
2023-05-21T16:27:50.830Z,35.14
2023-05-21T16:30:17.549Z,35.00
2023-05-21T16:32:53.083Z,35.38
2023-05-21T16:35:19.602Z,35.80
2023-05-21T16:37:46.270Z,35.94
2023-05-21T16:40:18.512Z,35.30
2023-05-21T16:42:45.054Z,36.09
2023-05-21T16:45:19.468Z,35.90
2023-05-21T16:47:52.555Z,35.35
2023-05-21T16:50:22.248Z,35.75
2023-05-21T16:52:48.747Z,35.72
2023-05-21T16:55:15.228Z,35.73
2023-05-21T16:57:41.697Z,35.45
2023-05-21T17:00:08.687Z,35.25
2023-05-21T17:02:43.150Z,35.41
2023-05-21T17:05:09.682Z,35.37
2023-05-21T17:07:36.148Z,35.40
2023-05-21T17:10:03.010Z,35.63
2023-05-21T17:12:29.541Z,35.63
2023-05-21T17:14:56.014Z,35.75
2023-05-21T17:17:22.573Z,35.50
2023-05-21T17:19:49.012Z,35.65
2023-05-21T17:22:19.251Z,35.30
2023-05-21T17:24:49.467Z,35.35
2023-05-21T17:27:16.472Z,35.10
2023-05-21T17:29:42.975Z,35.23
2023-05-21T17:32:10.343Z,35.19
2023-05-21T17:34:37.335Z,34.67
2023-05-21T17:37:03.888Z,35.12
2023-05-21T17:39:30.657Z,34.87
2023-05-21T17:41:57.425Z,34.70
2023-05-21T17:44:24.071Z,35.04
2023-05-21T17:46:51.165Z,34.96
2023-05-21T17:49:18.372Z,34.74
2023-05-21T17:51:44.952Z,34.44
2023-05-21T17:54:11.748Z,34.65
2023-05-21T17:56:41.088Z,34.35
2023-05-21T17:59:11.672Z,34.19
2023-05-21T18:01:39.654Z,34.05
2023-05-21T18:04:12.238Z,33.40
2023-05-21T18:06:39.641Z,33.66
2023-05-21T18:09:08.002Z,33.55
2023-05-21T18:11:34.713Z,33.78
2023-05-21T18:14:01.318Z,33.45
2023-05-21T18:16:30.405Z,33.58
2023-05-21T18:18:57.275Z,33.21
2023-05-21T18:21:23.861Z,33.53
2023-05-21T18:23:50.303Z,33.46
2023-05-21T18:26:16.747Z,33.50
2023-05-21T18:28:43.202Z,33.75
2023-05-21T18:31:09.633Z,33.62
2023-05-21T18:33:36.278Z,33.70
2023-05-21T18:36:02.934Z,33.51
2023-05-21T18:38:29.495Z,33.70
2023-05-21T18:40:56.097Z,33.41
2023-05-21T18:43:22.826Z,32.98
2023-05-21T18:45:49.291Z,32.88
2023-05-21T18:48:16.126Z,32.42
2023-05-21T18:50:42.608Z,32.83
2023-05-21T18:53:10.453Z,32.76
2023-05-21T18:55:36.880Z,32.53
2023-05-21T18:58:03.348Z,32.39
2023-05-21T19:00:29.898Z,32.16
2023-05-21T19:02:56.527Z,32.31
2023-05-21T19:05:23.235Z,32.12
2023-05-21T19:07:49.685Z,32.39
2023-05-21T19:10:16.195Z,31.63
2023-05-21T19:12:43.528Z,31.46
2023-05-21T19:15:10.618Z,32.35
2023-05-21T19:17:39.025Z,32.33
2023-05-21T19:20:10.018Z,32.29
2023-05-21T19:22:37.200Z,31.78
2023-05-21T19:25:04.299Z,31.88
2023-05-21T19:27:30.971Z,31.69
2023-05-21T19:29:57.446Z,31.68
2023-05-21T19:32:23.992Z,31.43
2023-05-21T19:34:51.573Z,31.58
2023-05-21T19:37:18.239Z,31.06
2023-05-21T19:39:49.440Z,31.86
2023-05-21T19:42:17.307Z,31.56
2023-05-21T19:44:44.084Z,32.11
2023-05-21T19:47:10.699Z,32.15
2023-05-21T19:49:37.206Z,31.82
2023-05-21T19:52:04.603Z,31.57
2023-05-21T19:54:31.183Z,31.76
2023-05-21T19:56:57.710Z,30.95
2023-05-21T19:59:24.196Z,31.41
2023-05-21T20:01:51.752Z,30.65
2023-05-21T20:04:18.393Z,31.40
2023-05-21T20:06:45.009Z,31.53
2023-05-21T20:09:13.272Z,31.39
2023-05-21T20:11:39.879Z,31.29
2023-05-21T20:14:06.407Z,31.32
2023-05-21T20:16:33.374Z,31.09
2023-05-21T20:19:01.658Z,30.99
2023-05-21T20:21:29.570Z,30.94
2023-05-21T20:23:56.074Z,30.68
2023-05-21T20:26:23.236Z,30.36
2023-05-21T20:28:49.766Z,31.03
2023-05-21T20:31:16.278Z,30.99
2023-05-21T20:33:43.054Z,30.88
2023-05-21T20:36:09.580Z,31.08
2023-05-21T20:38:37.997Z,30.65
2023-05-21T20:41:04.669Z,30.43
2023-05-21T20:43:31.310Z,30.32
2023-05-21T20:45:59.916Z,30.87
2023-05-21T20:48:29.468Z,30.97
2023-05-21T20:50:57.465Z,30.60
2023-05-21T20:53:24.753Z,30.79
2023-05-21T20:55:52.609Z,30.82
2023-05-21T20:58:19.091Z,30.36
2023-05-21T21:00:48.394Z,30.67
2023-05-21T21:03:17.703Z,30.43
2023-05-21T21:05:44.604Z,30.09
2023-05-21T21:08:11.080Z,30.05
2023-05-21T21:10:38.559Z,30.44
2023-05-21T21:13:07.123Z,30.51
2023-05-21T21:15:34.093Z,29.71
2023-05-21T21:18:00.750Z,29.62
2023-05-21T21:20:27.543Z,29.47
2023-05-21T21:22:54.061Z,29.80
2023-05-21T21:25:21.071Z,29.88
2023-05-21T21:27:47.485Z,29.90
2023-05-21T21:30:14.013Z,29.62
2023-05-21T21:32:41.143Z,29.49
2023-05-21T21:35:07.968Z,29.91
2023-05-21T21:37:34.577Z,30.38
2023-05-21T21:40:01.021Z,30.15
2023-05-21T21:42:27.517Z,30.19
2023-05-21T21:44:54.236Z,30.01
2023-05-21T21:47:20.729Z,30.36
2023-05-21T21:49:48.064Z,30.01
2023-05-21T21:52:14.939Z,30.20
2023-05-21T21:54:41.625Z,30.63
2023-05-21T21:57:08.193Z,30.20
2023-05-21T21:59:37.916Z,30.26
2023-05-21T22:02:04.453Z,30.55
2023-05-21T22:04:30.906Z,30.19
2023-05-21T22:06:57.397Z,30.27
2023-05-21T22:09:23.877Z,30.10
2023-05-21T22:11:50.810Z,30.45
2023-05-21T22:14:18.177Z,30.55
2023-05-21T22:16:45.244Z,30.05
2023-05-21T22:19:12.904Z,30.17
2023-05-21T22:21:39.438Z,30.12
2023-05-21T22:24:06.198Z,29.92
2023-05-21T22:26:32.958Z,29.98
2023-05-21T22:28:59.927Z,29.96
2023-05-21T22:31:26.833Z,29.85
2023-05-21T22:33:53.300Z,30.02
2023-05-21T22:36:19.733Z,30.26
2023-05-21T22:38:46.368Z,30.26
2023-05-21T22:41:12.989Z,30.36
2023-05-21T22:43:39.479Z,30.57
2023-05-21T22:46:06.030Z,30.37
2023-05-21T22:48:34.415Z,30.29
2023-05-21T22:51:01.664Z,30.40
2023-05-21T22:53:28.309Z,30.78
2023-05-21T22:55:54.746Z,30.46
2023-05-21T22:58:21.251Z,30.37
2023-05-21T23:00:48.066Z,30.65
2023-05-21T23:03:14.656Z,30.84
2023-05-21T23:05:41.345Z,30.38
2023-05-21T23:08:07.921Z,30.34
2023-05-21T23:10:35.418Z,30.60
2023-05-21T23:13:01.957Z,30.34
2023-05-21T23:15:29.768Z,30.70
2023-05-21T23:17:57.001Z,30.36
2023-05-21T23:20:24.876Z,30.36
2023-05-21T23:22:51.914Z,30.28
2023-05-21T23:25:18.408Z,30.66
2023-05-21T23:27:44.994Z,30.42
2023-05-21T23:30:12.042Z,30.77
2023-05-21T23:32:39.006Z,30.55
2023-05-21T23:35:05.952Z,30.56
2023-05-21T23:37:32.402Z,30.28
2023-05-21T23:39:58.856Z,30.40
2023-05-21T23:42:25.296Z,30.48
2023-05-21T23:44:51.974Z,30.37
2023-05-21T23:47:18.411Z,30.48
2023-05-21T23:49:44.860Z,30.67
2023-05-21T23:52:13.433Z,30.73
2023-05-21T23:54:39.885Z,30.81
2023-05-21T23:57:06.334Z,30.55
2023-05-21T23:59:32.812Z,30.26
